createdAt,value
2022-07-29T00:01:04.785Z,82.68
2022-07-29T00:03:31.493Z,82.93
2022-07-29T00:05:58.107Z,82.90
2022-07-29T00:08:25.915Z,83.18
2022-07-29T00:10:52.432Z,83.23
2022-07-29T00:13:18.926Z,82.81
2022-07-29T00:15:59.004Z,82.62
2022-07-29T00:18:31.102Z,83.38
2022-07-29T00:20:57.721Z,83.80
2022-07-29T00:23:24.232Z,84.33
2022-07-29T00:25:50.733Z,84.81
2022-07-29T00:28:18.435Z,85.23
2022-07-29T00:30:44.975Z,83.91
2022-07-29T00:33:11.472Z,84.20
2022-07-29T00:35:48.861Z,83.20
2022-07-29T00:38:17.125Z,83.88
2022-07-29T00:40:44.226Z,84.00
2022-07-29T00:43:11.965Z,83.98
2022-07-29T00:45:38.502Z,84.19
2022-07-29T00:48:05.851Z,85.63
2022-07-29T00:50:33.248Z,85.14
2022-07-29T00:52:59.994Z,86.03
2022-07-29T00:55:26.612Z,85.71
2022-07-29T00:57:53.850Z,84.29
2022-07-29T01:00:23.733Z,84.46
2022-07-29T01:02:50.444Z,84.28
2022-07-29T01:05:21.598Z,84.09
2022-07-29T01:07:50.599Z,84.21
2022-07-29T01:10:17.268Z,83.65
2022-07-29T01:12:47.102Z,83.64
2022-07-29T01:15:13.811Z,84.45
2022-07-29T01:17:52.685Z,84.82
2022-07-29T01:20:59.655Z,85.93
2022-07-29T01:23:53.559Z,86.52
2022-07-29T01:26:43.622Z,86.31
2022-07-29T01:29:23.713Z,85.09
2022-07-29T01:31:58.990Z,84.82
2022-07-29T01:34:31.189Z,84.34
2022-07-29T01:37:18.771Z,84.74
2022-07-29T01:39:47.472Z,85.52
2022-07-29T01:42:37.161Z,86.30
2022-07-29T01:45:23.133Z,85.36
2022-07-29T01:48:01.918Z,85.79
2022-07-29T01:51:12.468Z,85.87
2022-07-29T01:53:49.123Z,85.82
2022-07-29T01:56:17.951Z,85.73
2022-07-29T01:58:45.029Z,86.17
2022-07-29T02:01:12.263Z,86.15
2022-07-29T02:03:39.358Z,85.73
2022-07-29T02:06:07.604Z,85.94
2022-07-29T02:08:34.446Z,85.92
2022-07-29T02:11:01.726Z,85.37
2022-07-29T02:13:30.249Z,85.83
2022-07-29T02:15:58.559Z,86.52
2022-07-29T02:18:26.582Z,86.67
2022-07-29T02:20:55.229Z,87.18
2022-07-29T02:23:24.116Z,87.05
2022-07-29T02:25:54.616Z,86.46
2022-07-29T02:28:23.126Z,86.58
2022-07-29T02:30:51.554Z,86.22
2022-07-29T02:33:20.502Z,86.61
2022-07-29T02:35:48.323Z,86.94
2022-07-29T02:38:35.422Z,87.09
2022-07-29T02:41:05.481Z,86.60
2022-07-29T02:43:32.778Z,85.90
2022-07-29T02:46:00.092Z,86.01
2022-07-29T02:48:34.197Z,85.86
2022-07-29T02:51:07.285Z,85.93
2022-07-29T02:53:35.585Z,86.40
2022-07-29T02:56:12.110Z,86.89
2022-07-29T02:58:41.824Z,87.60
2022-07-29T03:01:21.582Z,86.98
2022-07-29T03:03:49.894Z,86.96
2022-07-29T03:06:28.289Z,87.18
2022-07-29T03:09:09.065Z,87.87
2022-07-29T03:11:49.198Z,86.79
2022-07-29T03:14:19.307Z,87.15
2022-07-29T03:16:46.315Z,87.17
2022-07-29T03:19:12.965Z,87.20
2022-07-29T03:21:39.878Z,87.24
2022-07-29T03:24:10.272Z,86.96
2022-07-29T03:26:37.430Z,85.88
2022-07-29T03:29:03.944Z,83.79
2022-07-29T03:31:30.646Z,83.74
2022-07-29T03:33:58.435Z,85.08
2022-07-29T03:36:25.761Z,85.69
2022-07-29T03:38:52.808Z,86.18
2022-07-29T03:41:22.319Z,85.57
2022-07-29T03:43:50.299Z,86.49
2022-07-29T03:46:18.463Z,85.91
2022-07-29T03:48:47.936Z,86.05
2022-07-29T03:51:14.604Z,85.48
2022-07-29T03:53:41.394Z,85.83
2022-07-29T03:56:09.079Z,86.61
2022-07-29T03:58:35.652Z,86.93
2022-07-29T04:01:02.262Z,87.77
2022-07-29T04:03:28.843Z,88.85
2022-07-29T04:06:03.656Z,86.66
2022-07-29T04:08:30.356Z,86.34
2022-07-29T04:10:56.920Z,85.81
2022-07-29T04:13:23.503Z,85.66
2022-07-29T04:15:50.049Z,84.78
2022-07-29T04:18:16.596Z,85.65
2022-07-29T04:20:43.121Z,85.59
2022-07-29T04:23:09.593Z,86.14
2022-07-29T04:25:41.456Z,86.37
2022-07-29T04:28:08.772Z,86.62
2022-07-29T04:30:37.993Z,86.73
2022-07-29T04:33:06.199Z,86.11
2022-07-29T04:35:38.570Z,87.47
2022-07-29T04:38:15.900Z,86.07
2022-07-29T04:40:43.919Z,86.03
2022-07-29T04:43:10.494Z,85.57
2022-07-29T04:45:39.079Z,85.62
2022-07-29T04:48:05.886Z,84.30
2022-07-29T04:50:32.809Z,83.45
2022-07-29T04:52:59.495Z,83.02
2022-07-29T04:55:26.473Z,82.24
2022-07-29T04:57:53.288Z,80.65
2022-07-29T05:00:19.771Z,77.36
2022-07-29T05:02:46.305Z,77.65
2022-07-29T05:05:12.872Z,78.19
2022-07-29T05:07:41.741Z,77.23
2022-07-29T05:10:09.045Z,78.38
2022-07-29T05:12:35.597Z,78.57
2022-07-29T05:15:02.055Z,79.48
2022-07-29T05:17:28.695Z,78.04
2022-07-29T05:19:55.261Z,78.88
2022-07-29T05:22:22.109Z,78.26
2022-07-29T05:24:51.795Z,77.76
2022-07-29T05:27:18.546Z,77.79
2022-07-29T05:29:45.948Z,76.82
2022-07-29T05:32:13.646Z,77.71
2022-07-29T05:34:50.336Z,76.38
2022-07-29T05:37:19.585Z,76.71
2022-07-29T05:39:49.126Z,75.90
2022-07-29T05:42:17.481Z,75.31
2022-07-29T05:44:44.099Z,74.58
2022-07-29T05:47:10.680Z,73.46
2022-07-29T05:49:37.297Z,72.82
2022-07-29T05:52:05.550Z,72.81
2022-07-29T05:54:32.069Z,69.87
2022-07-29T05:56:58.558Z,68.64
2022-07-29T05:59:30.161Z,66.92
2022-07-29T06:01:59.136Z,68.28
2022-07-29T06:04:25.803Z,69.09
2022-07-29T06:06:52.470Z,68.72
2022-07-29T06:09:18.984Z,69.14
2022-07-29T06:11:45.752Z,68.26
2022-07-29T06:14:12.322Z,65.99
2022-07-29T06:16:38.979Z,65.68
2022-07-29T06:19:06.952Z,65.61
2022-07-29T06:21:34.531Z,65.92
2022-07-29T06:24:05.701Z,67.13
2022-07-29T06:26:35.276Z,64.08
2022-07-29T06:29:06.461Z,62.51
2022-07-29T06:31:34.540Z,61.91
2022-07-29T06:34:01.193Z,61.81
2022-07-29T06:36:28.823Z,64.01
2022-07-29T06:38:55.418Z,62.59
2022-07-29T06:41:24.052Z,61.96
2022-07-29T06:43:54.567Z,61.34
2022-07-29T06:46:25.040Z,61.65
2022-07-29T06:48:52.925Z,60.19
2022-07-29T06:51:25.192Z,57.91
2022-07-29T06:54:00.094Z,60.63
2022-07-29T06:56:38.573Z,59.93
2022-07-29T06:59:10.524Z,58.30
2022-07-29T07:01:40.975Z,59.11
2022-07-29T07:04:09.607Z,59.06
2022-07-29T07:06:39.923Z,59.20
2022-07-29T07:09:06.580Z,59.78
2022-07-29T07:11:33.252Z,60.03
2022-07-29T07:14:03.446Z,59.66
2022-07-29T07:16:30.835Z,59.40
2022-07-29T07:18:57.614Z,59.42
2022-07-29T07:21:24.188Z,59.64
2022-07-29T07:23:50.670Z,59.64
2022-07-29T07:26:17.161Z,58.86
2022-07-29T07:28:45.772Z,56.33
2022-07-29T07:31:12.740Z,57.38
2022-07-29T07:33:40.183Z,58.79
2022-07-29T07:36:06.789Z,59.95
2022-07-29T07:38:33.348Z,60.80
2022-07-29T07:41:00.243Z,58.26
2022-07-29T07:43:27.113Z,58.05
2022-07-29T07:45:56.154Z,57.06
2022-07-29T07:48:22.879Z,57.51
2022-07-29T07:50:50.381Z,57.66
2022-07-29T07:53:17.313Z,57.10
2022-07-29T07:58:33.364Z,55.43
2022-07-29T08:01:07.999Z,57.76
2022-07-29T08:03:34.620Z,55.11
2022-07-29T08:06:01.314Z,55.81
2022-07-29T08:08:27.872Z,55.97
2022-07-29T08:10:54.552Z,55.79
2022-07-29T08:13:23.596Z,53.41
2022-07-29T08:16:14.332Z,54.25
2022-07-29T08:18:45.287Z,54.82
2022-07-29T08:21:16.382Z,52.70
2022-07-29T08:23:58.700Z,52.76
2022-07-29T08:26:26.956Z,51.16
2022-07-29T08:28:55.989Z,51.40
2022-07-29T08:31:22.661Z,49.70
2022-07-29T08:33:49.286Z,49.26
2022-07-29T08:36:15.835Z,49.87
2022-07-29T08:38:42.333Z,50.75
2022-07-29T08:41:10.237Z,52.14
2022-07-29T08:43:38.700Z,53.53
2022-07-29T08:46:05.278Z,52.32
2022-07-29T08:48:32.156Z,52.85
2022-07-29T08:50:58.880Z,54.93
2022-07-29T08:53:27.972Z,53.53
2022-07-29T08:56:04.714Z,51.11
2022-07-29T08:58:36.535Z,46.00
2022-07-29T09:01:04.391Z,48.24
2022-07-29T09:03:36.654Z,45.64
2022-07-29T09:06:06.830Z,46.06
2022-07-29T09:08:34.160Z,47.42
2022-07-29T09:11:03.953Z,49.23
2022-07-29T09:13:31.926Z,45.20
2022-07-29T09:15:58.660Z,44.60
2022-07-29T09:18:38.674Z,45.81
2022-07-29T09:21:28.632Z,47.14
2022-07-29T09:24:07.867Z,44.60
2022-07-29T09:26:42.617Z,44.15
2022-07-29T09:29:10.479Z,42.52
2022-07-29T09:31:39.264Z,42.48
2022-07-29T09:34:08.597Z,45.09
2022-07-29T09:36:42.430Z,46.48
2022-07-29T09:39:13.706Z,48.83
2022-07-29T09:41:56.214Z,50.04
2022-07-29T09:44:24.149Z,49.87
2022-07-29T09:46:59.291Z,49.16
2022-07-29T09:49:26.848Z,47.52
2022-07-29T09:52:09.999Z,46.66
2022-07-29T09:54:39.937Z,45.15
2022-07-29T09:57:13.544Z,44.68
2022-07-29T09:59:50.282Z,45.01
2022-07-29T10:02:23.961Z,46.32
2022-07-29T10:04:50.766Z,47.23
2022-07-29T10:07:17.249Z,45.60
2022-07-29T10:09:59.736Z,46.09
2022-07-29T10:12:31.319Z,47.38
2022-07-29T10:14:57.890Z,45.90
2022-07-29T10:17:27.153Z,44.68
2022-07-29T10:19:53.797Z,44.59
2022-07-29T10:22:43.617Z,41.67
2022-07-29T10:25:08.032Z,43.29
2022-07-29T10:27:36.261Z,42.81
2022-07-29T10:30:05.645Z,42.10
2022-07-29T10:32:43.170Z,42.01
2022-07-29T10:35:22.559Z,40.98
2022-07-29T10:38:16.528Z,41.36
2022-07-29T10:41:02.595Z,40.99
2022-07-29T10:43:37.515Z,41.46
2022-07-29T10:46:07.405Z,38.85
2022-07-29T10:48:34.468Z,38.03
2022-07-29T10:51:06.959Z,37.00
2022-07-29T10:53:53.501Z,37.39
2022-07-29T10:56:32.046Z,35.35
2022-07-29T11:00:06.065Z,34.24
2022-07-29T11:02:41.954Z,33.59
2022-07-29T11:05:14.678Z,34.12
2022-07-29T11:08:26.286Z,34.35
2022-07-29T11:11:17.407Z,33.70
2022-07-29T11:13:49.067Z,34.93
2022-07-29T11:16:16.384Z,34.38
2022-07-29T11:19:11.352Z,35.94
2022-07-29T11:21:53.393Z,34.04
2022-07-29T11:24:28.696Z,35.66
2022-07-29T11:27:19.914Z,34.03
2022-07-29T11:32:49.589Z,35.56
2022-07-29T11:35:37.058Z,34.69
2022-07-29T11:38:31.698Z,33.67
2022-07-29T11:41:20.988Z,33.58
2022-07-29T11:43:55.954Z,33.42
2022-07-29T11:46:49.898Z,32.87
2022-07-29T11:49:32.325Z,34.63
2022-07-29T11:52:02.836Z,34.31
2022-07-29T11:54:52.495Z,32.95
2022-07-29T11:57:22.224Z,32.60
2022-07-29T11:59:49.041Z,32.04
2022-07-29T12:05:10.399Z,31.68
2022-07-29T12:07:39.247Z,33.73
2022-07-29T12:10:11.477Z,33.14
2022-07-29T12:12:53.199Z,32.17
2022-07-29T12:15:22.358Z,30.40
2022-07-29T12:17:49.428Z,31.45
2022-07-29T12:20:48.140Z,31.85
2022-07-29T12:23:16.212Z,32.07
2022-07-29T12:25:49.808Z,34.07
2022-07-29T12:28:26.873Z,34.43
2022-07-29T12:30:54.408Z,33.91
2022-07-29T12:33:28.442Z,34.00
2022-07-29T12:36:06.999Z,33.55
2022-07-29T12:38:35.988Z,34.57
2022-07-29T12:41:04.348Z,33.65
2022-07-29T12:43:35.876Z,33.75
2022-07-29T12:46:15.905Z,33.52
2022-07-29T12:48:44.637Z,33.51
2022-07-29T12:51:13.268Z,34.15
2022-07-29T12:53:40.083Z,32.92
2022-07-29T12:56:20.724Z,33.70
2022-07-29T12:58:53.607Z,36.55
2022-07-29T13:01:21.142Z,36.04
2022-07-29T13:03:58.080Z,34.94
2022-07-29T13:06:32.304Z,34.10
2022-07-29T13:09:04.904Z,34.62
2022-07-29T13:11:39.501Z,35.97
2022-07-29T13:14:10.709Z,34.66
2022-07-29T13:16:59.562Z,35.52
2022-07-29T13:19:34.622Z,36.67
2022-07-29T13:22:01.391Z,37.14
2022-07-29T13:24:27.922Z,36.56
2022-07-29T13:26:56.745Z,36.41
2022-07-29T13:29:23.287Z,36.15
2022-07-29T13:31:49.926Z,34.92
2022-07-29T13:34:16.567Z,38.99
2022-07-29T13:36:43.055Z,38.01
2022-07-29T13:39:09.515Z,39.55
2022-07-29T13:41:36.069Z,38.01
2022-07-29T13:44:06.209Z,37.56
2022-07-29T13:46:32.839Z,39.08
2022-07-29T13:48:59.384Z,39.88
2022-07-29T13:51:25.990Z,39.61
2022-07-29T13:53:52.513Z,40.56
2022-07-29T13:56:19.074Z,41.11
2022-07-29T13:58:45.674Z,41.37
2022-07-29T14:01:12.216Z,44.10
2022-07-29T14:03:45.202Z,43.42
2022-07-29T14:06:12.708Z,43.66
2022-07-29T14:08:39.203Z,43.94
2022-07-29T14:11:05.907Z,43.76
2022-07-29T14:13:32.525Z,42.99
2022-07-29T14:15:59.117Z,42.59
2022-07-29T14:18:25.791Z,42.50
2022-07-29T14:20:52.487Z,41.51
2022-07-29T14:23:20.208Z,41.57
2022-07-29T14:25:47.211Z,40.75
2022-07-29T14:28:17.083Z,40.33
2022-07-29T14:30:44.219Z,41.47
2022-07-29T14:33:10.994Z,42.35
2022-07-29T14:35:37.607Z,42.08
2022-07-29T14:38:04.221Z,42.67
2022-07-29T14:40:38.672Z,41.98
2022-07-29T14:43:05.287Z,42.54
2022-07-29T14:45:32.988Z,43.24
2022-07-29T14:48:01.838Z,43.57
2022-07-29T14:50:31.985Z,45.80
2022-07-29T14:53:03.463Z,45.27
2022-07-29T14:55:30.365Z,44.35
2022-07-29T14:58:07.726Z,44.36
2022-07-29T15:00:37.907Z,43.64
2022-07-29T15:03:05.165Z,43.96
2022-07-29T15:05:32.185Z,42.72
2022-07-29T15:07:59.831Z,43.77
2022-07-29T15:10:29.791Z,43.30
2022-07-29T15:12:56.613Z,42.43
2022-07-29T15:15:23.167Z,43.50
2022-07-29T15:17:49.672Z,44.51
2022-07-29T15:20:18.857Z,43.50
2022-07-29T15:22:45.564Z,43.88
2022-07-29T15:25:12.074Z,44.38
2022-07-29T15:27:38.572Z,44.27
2022-07-29T15:30:08.597Z,45.92
2022-07-29T15:32:35.071Z,45.67
2022-07-29T15:35:01.556Z,45.57
2022-07-29T15:37:29.405Z,43.08
2022-07-29T15:40:16.413Z,44.23
2022-07-29T15:42:42.941Z,44.04
2022-07-29T15:45:09.928Z,43.85
2022-07-29T15:47:36.711Z,44.35
2022-07-29T15:50:03.837Z,44.95
2022-07-29T15:52:31.267Z,44.73
2022-07-29T15:54:57.917Z,45.29
2022-07-29T15:57:24.914Z,44.82
2022-07-29T15:59:51.892Z,44.24
2022-07-29T16:02:18.529Z,43.50
2022-07-29T16:04:45.160Z,43.52
2022-07-29T16:07:11.739Z,45.67
2022-07-29T16:09:39.444Z,44.93
2022-07-29T16:12:14.755Z,45.40
2022-07-29T16:14:43.352Z,45.07
2022-07-29T16:17:14.878Z,44.95
2022-07-29T16:19:43.080Z,46.22
2022-07-29T16:22:09.660Z,47.11
2022-07-29T16:24:39.083Z,48.21
2022-07-29T16:27:05.859Z,48.54
2022-07-29T16:29:32.372Z,48.97
2022-07-29T16:31:58.957Z,49.20
2022-07-29T16:34:25.479Z,49.19
2022-07-29T16:36:51.981Z,49.70
2022-07-29T16:39:18.542Z,48.49
2022-07-29T16:41:45.246Z,48.51
2022-07-29T16:44:11.749Z,49.45
2022-07-29T16:46:44.272Z,49.84
2022-07-29T16:49:10.971Z,49.92
2022-07-29T16:51:37.696Z,51.79
2022-07-29T16:54:14.047Z,53.69
2022-07-29T16:56:40.722Z,53.74
2022-07-29T16:59:10.501Z,52.18
2022-07-29T17:01:38.312Z,52.94
2022-07-29T17:04:07.839Z,52.31
2022-07-29T17:06:38.697Z,51.80
2022-07-29T17:09:06.561Z,51.78
2022-07-29T17:11:51.762Z,51.03
2022-07-29T17:14:24.070Z,51.23
2022-07-29T17:17:00.653Z,51.08
2022-07-29T17:19:29.435Z,51.33
2022-07-29T17:22:04.702Z,51.28
2022-07-29T17:24:33.834Z,50.99
2022-07-29T17:27:00.736Z,51.60
2022-07-29T17:29:27.712Z,51.25
2022-07-29T17:31:54.270Z,52.07
2022-07-29T17:34:21.898Z,53.20
2022-07-29T17:36:48.377Z,52.88
2022-07-29T17:39:14.923Z,51.73
2022-07-29T17:41:41.486Z,51.54
2022-07-29T17:44:09.439Z,52.35
2022-07-29T17:46:36.613Z,53.22
2022-07-29T17:49:03.872Z,54.66
2022-07-29T17:51:30.450Z,54.72
2022-07-29T17:53:59.608Z,55.89
2022-07-29T17:56:27.571Z,54.98
2022-07-29T17:58:57.004Z,55.36
2022-07-29T18:01:24.997Z,55.46
2022-07-29T18:04:00.254Z,55.71
2022-07-29T18:06:28.578Z,55.22
2022-07-29T18:08:57.562Z,55.30
2022-07-29T18:11:24.286Z,55.01
2022-07-29T18:13:51.031Z,54.82
2022-07-29T18:16:18.126Z,56.35
2022-07-29T18:18:45.532Z,55.95
2022-07-29T18:21:38.131Z,57.49
2022-07-29T18:24:06.799Z,57.47
2022-07-29T18:26:45.935Z,57.02
2022-07-29T18:29:19.948Z,56.56
2022-07-29T18:31:46.548Z,56.13
2022-07-29T18:34:13.188Z,55.45
2022-07-29T18:36:39.709Z,56.59
2022-07-29T18:39:06.411Z,54.53
2022-07-29T18:41:33.503Z,54.19
2022-07-29T18:44:00.031Z,54.99
2022-07-29T18:46:26.798Z,55.43
2022-07-29T18:48:53.481Z,55.42
2022-07-29T18:51:21.860Z,54.31
2022-07-29T18:53:48.718Z,54.97
2022-07-29T18:56:15.254Z,55.04
2022-07-29T18:58:41.854Z,55.17
2022-07-29T19:01:08.391Z,56.30
2022-07-29T19:03:35.004Z,56.23
2022-07-29T19:06:01.518Z,56.49
2022-07-29T19:08:28.068Z,55.46
2022-07-29T19:10:54.565Z,56.26
2022-07-29T19:13:21.109Z,57.86
2022-07-29T19:15:48.033Z,57.49
2022-07-29T19:18:14.634Z,56.92
2022-07-29T19:20:42.418Z,57.39
2022-07-29T19:23:09.355Z,57.32
2022-07-29T19:25:35.940Z,57.29
2022-07-29T19:28:02.480Z,57.95
2022-07-29T19:30:29.162Z,58.47
2022-07-29T19:32:55.918Z,58.21
2022-07-29T19:35:32.874Z,59.16
2022-07-29T19:38:01.591Z,60.46
2022-07-29T19:40:30.701Z,61.10
2022-07-29T19:42:57.618Z,61.62
2022-07-29T19:45:25.706Z,61.99
2022-07-29T19:47:54.013Z,62.95
2022-07-29T19:50:23.139Z,63.20
2022-07-29T19:52:49.651Z,63.83
2022-07-29T19:55:16.428Z,64.67
2022-07-29T19:57:46.250Z,64.60
2022-07-29T20:00:21.200Z,64.36
2022-07-29T20:02:48.238Z,65.13
2022-07-29T20:05:14.778Z,65.05
2022-07-29T20:07:41.691Z,65.29
2022-07-29T20:10:09.044Z,65.65
2022-07-29T20:12:38.207Z,65.20
2022-07-29T20:15:10.205Z,65.99
2022-07-29T20:18:06.962Z,66.76
2022-07-29T20:20:33.620Z,66.22
2022-07-29T20:23:01.054Z,67.05
2022-07-29T20:25:29.260Z,66.52
2022-07-29T20:27:55.812Z,66.56
2022-07-29T20:30:22.725Z,67.73
2022-07-29T20:32:50.853Z,67.71
2022-07-29T20:35:19.804Z,67.74
2022-07-29T20:37:55.995Z,67.69
2022-07-29T20:40:26.421Z,67.61
2022-07-29T20:42:54.444Z,67.81
2022-07-29T20:45:21.474Z,68.17
2022-07-29T20:47:48.031Z,67.90
2022-07-29T20:50:14.950Z,67.63
2022-07-29T20:52:43.350Z,67.23
2022-07-29T20:55:10.841Z,68.18
2022-07-29T20:57:39.158Z,67.56
2022-07-29T21:00:07.481Z,68.40
2022-07-29T21:02:34.352Z,68.90
2022-07-29T21:05:01.176Z,69.47
2022-07-29T21:07:36.346Z,69.27
2022-07-29T21:10:03.052Z,69.17
2022-07-29T21:12:30.128Z,69.43
2022-07-29T21:14:57.835Z,69.87
2022-07-29T21:17:24.398Z,69.72
2022-07-29T21:19:52.754Z,70.37
2022-07-29T21:22:21.889Z,70.14
2022-07-29T21:24:49.185Z,70.38
2022-07-29T21:27:34.300Z,70.33
2022-07-29T21:30:00.996Z,70.22
2022-07-29T21:32:30.294Z,70.50
2022-07-29T21:34:57.963Z,71.08
2022-07-29T21:37:24.654Z,71.37
2022-07-29T21:39:51.221Z,71.58
2022-07-29T21:42:17.765Z,71.91
2022-07-29T21:44:44.300Z,73.11
2022-07-29T21:47:11.934Z,73.28
2022-07-29T21:49:38.697Z,73.18
2022-07-29T21:52:05.569Z,73.50
2022-07-29T21:54:34.600Z,73.41
2022-07-29T21:57:01.270Z,73.70
2022-07-29T21:59:27.800Z,73.35
2022-07-29T22:01:58.556Z,73.74
2022-07-29T22:04:25.568Z,73.61
2022-07-29T22:06:52.125Z,74.50
2022-07-29T22:09:18.593Z,75.02
2022-07-29T22:11:45.144Z,74.87
2022-07-29T22:14:12.362Z,74.99
2022-07-29T22:16:38.912Z,75.99
2022-07-29T22:19:05.573Z,75.79
2022-07-29T22:21:32.286Z,75.12
2022-07-29T22:23:58.838Z,75.27
2022-07-29T22:26:25.406Z,76.03
2022-07-29T22:28:51.916Z,76.12
2022-07-29T22:31:18.544Z,75.60
2022-07-29T22:33:45.491Z,75.74
2022-07-29T22:36:11.984Z,75.93
2022-07-29T22:38:40.867Z,75.29
2022-07-29T22:41:07.481Z,75.17
2022-07-29T22:43:34.646Z,75.40
2022-07-29T22:46:01.289Z,75.86
2022-07-29T22:48:27.910Z,75.75
2022-07-29T22:50:54.446Z,76.35
2022-07-29T22:53:21.422Z,76.23
2022-07-29T22:55:47.975Z,76.07
2022-07-29T22:58:14.439Z,76.72
2022-07-29T23:00:41.362Z,76.13
2022-07-29T23:03:07.962Z,76.01
2022-07-29T23:05:34.558Z,76.58
2022-07-29T23:08:01.137Z,76.67
2022-07-29T23:10:27.835Z,76.25
2022-07-29T23:12:54.290Z,75.59
2022-07-29T23:15:20.896Z,75.12
2022-07-29T23:17:47.424Z,75.45
2022-07-29T23:20:15.071Z,74.81
2022-07-29T23:22:41.960Z,74.55
2022-07-29T23:25:08.786Z,75.42
2022-07-29T23:27:35.818Z,75.69
2022-07-29T23:30:02.745Z,76.83
2022-07-29T23:32:29.399Z,77.05
2022-07-29T23:34:57.417Z,76.92
2022-07-29T23:37:23.881Z,77.07
2022-07-29T23:39:53.151Z,77.53
2022-07-29T23:42:19.644Z,78.08
2022-07-29T23:44:46.128Z,77.99
2022-07-29T23:47:13.701Z,78.45
2022-07-29T23:49:40.283Z,78.65
2022-07-29T23:52:06.745Z,78.37
2022-07-29T23:54:33.432Z,77.77
2022-07-29T23:57:00.098Z,78.02
2022-07-29T23:59:29.838Z,78.45
